Time;durP1;ratioP1;P1;durP2;ratioP2;P2;SDS_P1;SDS_P2;PMS_P1;PMS_P2;Temp;Humidity;BMP_temperature;BMP_pressure;BME280_temperature;BME280_humidity;BME280_pressure;Samples;Min_cycle;Max_cycle;Signal;HPM_P1;HPM_P2
2022/04/22 00:00:11;;;;;;;18.17;9.48;;;;;;;9.09;64.55;99790.81;4932262;29;20103;-69
2022/04/22 00:02:39;;;;;;;17.85;10.15;;;;;;;9.04;64.85;99796.22;4933730;29;20528;-68
2022/04/22 00:05:05;;;;;;;17.20;9.35;;;;;;;9.03;64.85;99791.84;4932198;29;20217;-68
2022/04/22 00:07:32;;;;;;;16.08;9.65;;;;;;;8.94;65.09;99789.66;4934242;29;20061;-68
2022/04/22 00:09:58;;;;;;;17.77;9.30;;;;;;;8.98;65.11;99787.22;4932938;29;20061;-68
2022/04/22 00:12:25;;;;;;;16.20;9.23;;;;;;;9.00;64.75;99790.50;4933045;29;20059;-68
2022/04/22 00:14:51;;;;;;;16.58;9.70;;;;;;;9.18;64.40;99789.22;4932449;29;20484;-68
2022/04/22 00:17:17;;;;;;;20.42;10.43;;;;;;;9.25;63.65;99780.78;4932119;29;20119;-68
2022/04/22 00:19:43;;;;;;;17.70;10.05;;;;;;;9.33;63.22;99788.47;4935881;29;20139;-68
2022/04/22 00:22:09;;;;;;;21.67;12.75;;;;;;;9.30;63.37;99783.56;4922210;29;20150;-67
2022/04/22 00:24:36;;;;;;;20.83;12.68;;;;;;;9.28;63.55;99785.69;4936011;29;20494;-68
2022/04/22 00:27:02;;;;;;;24.83;12.73;;;;;;;9.31;63.38;99790.66;4929094;29;20091;-68
2022/04/22 00:29:29;;;;;;;24.17;12.30;;;;;;;9.27;63.49;99780.53;4914243;29;20060;-68
2022/04/22 00:31:55;;;;;;;27.83;12.60;;;;;;;9.26;63.68;99779.69;4931392;29;20492;-68
2022/04/22 00:34:21;;;;;;;22.15;12.45;;;;;;;9.27;63.52;99788.72;4899974;29;20529;-69
2022/04/22 00:36:47;;;;;;;23.45;12.35;;;;;;;9.19;63.80;99781.84;4916814;29;20410;-68
2022/04/22 00:39:13;;;;;;;29.27;12.23;;;;;;;9.25;63.86;99782.72;4931763;29;20146;-68
2022/04/22 00:41:39;;;;;;;24.52;12.70;;;;;;;9.22;63.89;99787.63;4932692;29;20504;-67
2022/04/22 00:44:05;;;;;;;21.55;12.82;;;;;;;9.19;64.11;99790.03;4931544;29;20075;-69
2022/04/22 00:46:32;;;;;;;23.63;13.75;;;;;;;9.14;64.63;99785.38;4931670;29;20059;-69
2022/04/22 00:48:59;;;;;;;30.75;13.73;;;;;;;9.09;64.71;99785.38;4932653;29;20542;-67
2022/04/22 00:51:25;;;;;;;26.08;13.77;;;;;;;9.12;64.78;99784.81;4913837;29;20063;-69
2022/04/22 00:53:52;;;;;;;27.40;14.40;;;;;;;9.15;64.72;99778.84;4931456;29;20072;-68
2022/04/22 00:56:19;;;;;;;23.73;12.98;;;;;;;9.19;64.38;99768.22;4915030;29;20052;-67
2022/04/22 00:58:48;;;;;;;28.40;13.57;;;;;;;9.13;64.60;99778.28;4903384;29;20047;-68
2022/04/22 01:01:15;;;;;;;23.67;13.10;;;;;;;9.15;64.71;99767.91;4919803;29;20314;-69
2022/04/22 01:09:47;;;;;;;31.70;15.23;;;;;;;9.13;64.87;99764.66;4913900;29;20538;-69
2022/04/22 01:12:01;;;;;;;26.65;15.57;;;;;;;9.17;64.53;99763.00;4932259;29;20536;-70
2022/04/22 01:14:29;;;;;;;28.90;14.50;;;;;;;9.09;64.64;99752.63;4931148;29;20067;-73
2022/04/22 01:16:55;;;;;;;29.77;15.70;;;;;;;9.14;64.78;99751.84;4908016;29;20063;-69
2022/04/22 01:19:23;;;;;;;26.10;15.07;;;;;;;9.14;64.69;99752.66;4931143;29;20055;-70
2022/04/22 01:21:52;;;;;;;27.13;15.73;;;;;;;9.15;64.72;99751.56;4933722;29;20089;-70
2022/04/22 01:24:20;;;;;;;27.90;16.48;;;;;;;9.05;64.97;99740.59;4926359;29;21008;-70
2022/04/22 01:26:46;;;;;;;28.90;16.52;;;;;;;9.14;64.86;99752.66;4929701;29;20063;-69
2022/04/22 01:29:13;;;;;;;31.65;18.05;;;;;;;9.13;65.11;99747.44;4932904;29;20063;-70
2022/04/22 01:31:43;;;;;;;29.38;16.85;;;;;;;9.13;65.08;99751.00;4913873;29;20082;-68
2022/04/22 01:34:09;;;;;;;30.38;16.58;;;;;;;9.15;65.02;99754.28;4926985;29;20568;-69
2022/04/22 01:36:35;;;;;;;30.30;17.30;;;;;;;9.19;64.96;99747.19;4917863;29;20063;-69
2022/04/22 01:39:02;;;;;;;30.98;17.13;;;;;;;9.18;65.06;99744.75;4933121;29;20055;-70
2022/04/22 01:41:29;;;;;;;37.55;17.30;;;;;;;9.21;64.81;99753.22;4933471;29;20063;-69
2022/04/22 01:43:55;;;;;;;32.67;17.42;;;;;;;9.14;65.17;99754.56;4915920;29;20059;-70
2022/04/22 01:46:22;;;;;;;34.20;18.15;;;;;;;9.11;65.23;99749.63;4931473;29;20079;-70
2022/04/22 01:48:48;;;;;;;42.40;19.55;;;;;;;9.01;65.51;99743.06;4931975;29;20063;-70
2022/04/22 01:51:14;;;;;;;35.70;18.77;;;;;;;9.09;65.29;99758.09;4931606;29;20070;-70
2022/04/22 01:53:41;;;;;;;35.58;18.23;;;;;;;9.11;65.22;99760.53;4932650;29;20055;-67
2022/04/22 01:56:08;;;;;;;37.78;18.63;;;;;;;9.10;65.33;99748.81;4916154;29;20429;-68
2022/04/22 01:58:34;;;;;;;34.80;19.10;;;;;;;9.11;65.13;99755.06;4900577;29;20056;-70
2022/04/22 02:01:00;;;;;;;38.58;21.13;;;;;;;9.09;65.28;99755.34;4917505;29;20057;-70
2022/04/22 02:03:27;;;;;;;40.25;18.90;;;;;;;9.02;65.28;99743.84;4904417;29;20051;-70
2022/04/22 02:05:52;;;;;;;37.20;19.95;;;;;;;9.13;65.20;99753.72;4933992;29;20107;-70
2022/04/22 02:08:20;;;;;;;41.80;21.40;;;;;;;9.15;65.36;99759.75;4915167;29;20048;-68
2022/04/22 02:10:46;;;;;;;41.63;20.25;;;;;;;9.15;65.15;99765.19;4917881;29;20059;-71
2022/04/22 02:13:13;;;;;;;44.17;22.17;;;;;;;9.13;65.18;99763.81;4931316;29;20107;-70
2022/04/22 02:15:39;;;;;;;39.70;22.80;;;;;;;9.11;65.25;99760.53;4935275;29;20063;-71
2022/04/22 02:18:06;;;;;;;41.25;20.02;;;;;;;9.16;65.27;99766.03;4935898;29;20052;-70
2022/04/22 02:20:33;;;;;;;41.90;19.45;;;;;;;9.16;65.15;99766.03;4918223;29;20158;-71
2022/04/22 02:22:59;;;;;;;39.47;19.92;;;;;;;9.15;65.26;99761.66;4935061;29;20477;-70
2022/04/22 02:25:25;;;;;;;35.50;18.83;;;;;;;9.17;64.93;99768.47;4934171;29;20091;-70
2022/04/22 02:30:37;;;;;;;32.25;17.38;;;;;;;9.21;64.94;99764.16;4917590;29;20060;-71
2022/04/22 02:33:03;;;;;;;29.30;17.03;;;;;;;9.25;64.78;99767.13;4915323;29;20513;-70
2022/04/22 02:35:29;;;;;;;31.40;17.38;;;;;;;9.26;64.63;99757.06;4933915;29;20063;-70
2022/04/22 02:37:55;;;;;;;36.33;17.48;;;;;;;9.27;64.68;99764.16;4918519;29;20436;-70
2022/04/22 02:45:52;;;;;;;25.65;14.20;;;;;;;9.35;63.81;99767.19;4933798;29;20055;-69
2022/04/22 02:48:18;;;;;;;27.70;12.88;;;;;;;9.35;64.15;99769.09;4934837;29;20102;-71
2022/04/22 02:50:45;;;;;;;24.65;11.93;;;;;;;9.32;63.84;99769.63;4916746;29;20488;-72
2022/04/22 02:53:11;;;;;;;22.98;12.35;;;;;;;9.35;63.91;99764.47;4949529;29;20417;-70
2022/04/22 02:55:41;;;;;;;30.73;12.43;;;;;;;9.33;63.78;99752.16;4935763;29;20051;-71
2022/04/22 02:58:07;;;;;;;28.45;12.98;;;;;;;9.35;63.73;99752.72;4934940;29;20071;-71
2022/04/22 03:00:33;;;;;;;25.00;11.68;;;;;;;9.35;63.75;99760.91;4931248;29;20114;-70
2022/04/22 03:03:01;;;;;;;23.10;10.73;;;;;;;9.39;63.62;99764.75;4934671;29;20070;-68
2022/04/22 03:05:28;;;;;;;22.88;11.15;;;;;;;9.39;63.71;99755.72;4933627;29;20078;-69
2022/04/22 03:07:54;;;;;;;25.88;11.23;;;;;;;9.38;63.72;99759.56;4933654;29;20059;-70
2022/04/22 03:10:20;;;;;;;42.08;11.43;;;;;;;9.34;63.63;99762.81;4933453;29;20043;-69
2022/04/22 03:12:46;;;;;;;23.70;11.15;;;;;;;9.37;63.72;99775.13;4932979;29;20488;-71
2022/04/22 03:15:15;;;;;;;26.55;11.13;;;;;;;9.37;63.88;99764.22;4934896;29;20504;-71
2022/04/22 03:17:41;;;;;;;24.92;11.85;;;;;;;9.40;63.63;99774.56;4923690;29;20082;-72
2022/04/22 03:20:10;;;;;;;24.15;11.55;;;;;;;9.39;63.36;99763.91;4916949;29;20086;-71
2022/04/22 03:22:36;;;;;;;29.70;11.77;;;;;;;9.44;63.49;99775.69;4929677;29;20071;-70
2022/04/22 03:25:02;;;;;;;21.80;10.77;;;;;;;9.51;63.35;99773.50;4899706;29;20485;-71
2022/04/22 03:27:31;;;;;;;31.38;12.68;;;;;;;9.48;63.34;99768.59;4935537;29;20059;-70
2022/04/22 03:29:57;;;;;;;35.33;12.57;;;;;;;9.53;63.47;99775.16;4934831;29;20147;-70
2022/04/22 03:32:23;;;;;;;30.95;12.95;;;;;;;9.54;63.49;99780.34;4922644;29;20191;-70
2022/04/22 03:34:50;;;;;;;26.30;12.27;;;;;;;9.57;63.20;99776.28;4901488;29;20067;-71
2022/04/22 03:37:17;;;;;;;27.95;12.63;;;;;;;9.54;63.39;99774.88;4932573;29;20048;-70
2022/04/22 03:39:43;;;;;;;41.45;14.60;;;;;;;9.51;63.35;99769.97;4934757;29;20060;-71
2022/04/22 03:42:09;;;;;;;33.92;13.63;;;;;;;9.39;63.44;99750.28;4934210;29;20135;-71
2022/04/22 03:44:36;;;;;;;38.35;13.95;;;;;;;9.55;63.19;99775.72;4914392;29;20513;-71
2022/04/22 03:47:03;;;;;;;48.30;18.30;;;;;;;9.55;63.41;99773.00;4934413;29;20075;-70
2022/04/22 03:49:31;;;;;;;37.55;16.05;;;;;;;9.59;63.26;99777.63;4944137;29;20599;-71
2022/04/22 03:51:57;;;;;;;;;;;;;;;9.58;63.11;99777.91;4934146;29;20052;-70
2022/04/22 03:54:25;;;;;;;40.10;17.38;;;;;;;9.58;63.09;99775.19;4931306;29;20058;-68
2022/04/22 03:59:36;;;;;;;46.83;22.38;;;;;;;9.60;63.07;99779.28;4915518;29;20079;-69
2022/04/22 04:02:03;;;;;;;56.65;25.20;;;;;;;9.61;63.24;99782.81;4898908;29;20055;-70
2022/04/22 04:04:30;;;;;;;59.67;27.98;;;;;;;9.65;62.96;99782.03;4929486;29;20066;-69
2022/04/22 04:06:56;;;;;;;63.43;33.83;;;;;;;9.63;63.22;99784.19;4935440;29;20057;-70
2022/04/22 04:17:39;;;;;;;61.20;33.05;;;;;;;9.62;63.46;99777.09;4922949;29;20048;-69
2022/04/22 04:25:40;;;;;;;65.13;30.80;;;;;;;9.51;63.81;99773.50;4934332;29;20350;-68
2022/04/22 04:28:10;;;;;;;68.13;31.40;;;;;;;9.58;63.72;99784.16;4917180;29;20444;-70
2022/04/22 04:30:37;;;;;;;74.63;29.88;;;;;;;9.70;63.51;99774.94;4931729;29;20062;-69
2022/04/22 04:33:04;;;;;;;58.38;29.02;;;;;;;9.67;63.50;99768.09;4915771;29;20142;-70
2022/04/22 04:35:30;;;;;;;49.35;24.88;;;;;;;9.59;63.61;99771.34;4930402;29;20052;-69
2022/04/22 04:37:56;;;;;;;51.63;24.00;;;;;;;9.63;63.90;99772.44;4933913;29;20110;-69
2022/04/22 04:40:23;;;;;;;46.65;22.02;;;;;;;9.63;63.74;99773.28;4932543;29;20102;-69
2022/04/22 04:42:51;;;;;;;46.10;21.63;;;;;;;9.67;63.55;99772.75;4932175;29;20060;-69
2022/04/22 04:45:18;;;;;;;46.13;20.13;;;;;;;9.66;63.36;99769.19;4927433;29;20119;-70
2022/04/22 04:47:44;;;;;;;48.72;21.13;;;;;;;9.67;63.38;99770.00;4933017;29;20055;-72
2022/04/22 04:50:12;;;;;;;51.67;21.42;;;;;;;9.73;63.33;99774.38;4930990;29;20056;-71
2022/04/22 04:52:38;;;;;;;45.03;20.48;;;;;;;9.77;63.04;99768.13;4930925;29;20056;-71
2022/04/22 04:55:05;;;;;;;47.17;19.70;;;;;;;9.65;62.76;99746.53;4932820;29;20056;-72
2022/04/22 04:57:31;;;;;;;;;;;;;;;9.82;62.93;99769.22;4932933;29;20150;-71
2022/04/22 04:59:59;;;;;;;41.92;19.38;;;;;;;9.81;62.69;99768.41;4931522;29;20022;-72
2022/04/22 05:02:26;;;;;;;49.95;19.42;;;;;;;9.85;62.70;99763.22;4922067;29;20051;-67
2022/04/22 05:04:52;;;;;;;45.70;20.23;;;;;;;9.88;62.48;99762.69;4932077;29;20056;-72
2022/04/22 05:07:18;;;;;;;52.47;21.92;;;;;;;9.92;62.55;99769.22;4929088;29;20078;-72
2022/04/22 05:09:45;;;;;;;42.45;19.60;;;;;;;9.95;62.31;99767.88;4930525;29;20044;-73
2022/04/22 05:12:11;;;;;;;43.40;21.15;;;;;;;9.98;62.24;99770.88;4932050;29;20063;-72
2022/04/22 05:14:38;;;;;;;51.15;20.48;;;;;;;9.86;62.21;99751.22;4930610;29;20111;-73
2022/04/22 05:17:05;;;;;;;45.63;21.10;;;;;;;9.96;62.06;99764.84;4932652;29;20517;-73
2022/04/22 05:19:31;;;;;;;44.35;19.45;;;;;;;10.01;62.06;99773.06;4929061;29;20063;-73
2022/04/22 05:21:57;;;;;;;43.03;19.38;;;;;;;10.10;61.83;99769.78;4932063;29;20071;-73
2022/04/22 05:24:24;;;;;;;43.50;20.60;;;;;;;10.08;61.79;99762.69;4914485;29;20059;-74
2022/04/22 05:26:50;;;;;;;43.03;20.45;;;;;;;10.12;61.74;99771.16;4911202;29;20164;-77
2022/04/22 05:34:48;;;;;;;52.83;21.02;;;;;;;10.15;61.22;99756.97;4936509;29;20207;-67
2022/04/22 05:37:13;;;;;;;51.85;20.33;;;;;;;10.24;61.48;99768.16;4934934;29;20965;-69
2022/04/22 05:39:43;;;;;;;54.92;21.30;;;;;;;10.20;61.51;99767.06;4935421;29;20051;-70
2022/04/22 05:42:09;;;;;;;47.60;18.80;;;;;;;10.24;61.36;99761.88;4935043;29;20063;-69
2022/04/22 05:44:35;;;;;;;45.55;19.60;;;;;;;10.26;61.19;99744.09;4919283;29;20048;-69
2022/04/22 05:47:02;;;;;;;43.15;17.88;;;;;;;10.38;61.11;99765.72;4928329;29;20048;-70
2022/04/22 05:49:27;;;;;;;46.30;18.60;;;;;;;10.37;60.78;99758.56;4931001;29;20060;-66
2022/04/22 05:51:54;;;;;;;44.80;17.60;;;;;;;10.44;60.83;99761.91;4930920;29;20147;-69
2022/04/22 05:54:21;;;;;;;38.90;16.40;;;;;;;10.49;60.66;99763.81;4933014;29;20043;-72
2022/04/22 05:56:48;;;;;;;42.83;17.00;;;;;;;10.57;60.46;99768.72;4932933;29;20111;-72
2022/04/22 05:59:14;;;;;;;39.67;16.92;;;;;;;10.57;60.24;99765.97;4913780;29;20099;-72
2022/04/22 06:01:41;;;;;;;41.63;16.10;;;;;;;10.59;60.20;99765.72;4932711;29;20055;-71
2022/04/22 06:04:08;;;;;;;44.45;17.08;;;;;;;10.62;60.11;99768.72;4914337;29;20127;-68
2022/04/22 06:06:34;;;;;;;31.33;15.70;;;;;;;10.64;60.03;99762.97;4931011;29;20151;-67
2022/04/22 06:11:45;;;;;;;37.25;16.83;;;;;;;10.78;59.48;99769.50;4933071;29;20514;-68
2022/04/22 06:14:12;;;;;;;32.13;16.80;;;;;;;10.87;59.28;99764.28;4892978;29;20520;-67
2022/04/22 06:16:40;;;;;;;36.85;16.63;;;;;;;10.97;58.99;99765.34;4933039;29;20097;-68
2022/04/22 06:19:06;;;;;;;;;;;;;;;10.98;59.04;99769.72;4933749;29;20057;-68
2022/04/22 06:21:32;;;;;;;42.38;17.08;;;;;;;10.94;59.12;99766.72;4934921;29;19930;-68
2022/04/22 06:23:58;;;;;;;37.22;16.75;;;;;;;10.92;59.01;99772.47;4930511;29;20056;-68
2022/04/22 06:26:26;;;;;;;38.63;16.30;;;;;;;10.88;59.26;99759.63;4932548;29;20119;-69
2022/04/22 06:28:52;;;;;;;41.22;16.38;;;;;;;10.97;59.09;99771.63;4930180;29;20048;-68
2022/04/22 06:31:19;;;;;;;44.67;17.42;;;;;;;11.08;58.76;99769.69;4918689;29;20142;-68
2022/04/22 06:33:47;;;;;;;44.60;17.75;;;;;;;11.09;58.73;99762.31;4926785;29;20040;-69
2022/04/22 06:36:14;;;;;;;48.90;16.77;;;;;;;11.16;58.57;99769.13;4937312;29;20051;-69
2022/04/22 06:38:44;;;;;;;43.30;15.52;;;;;;;11.16;58.45;99760.06;4935324;29;20142;-68
2022/04/22 06:46:47;;;;;;;23.83;11.38;;;;;;;11.26;58.13;99759.25;4918464;29;20052;-68
2022/04/22 06:49:14;;;;;;;32.53;11.88;;;;;;;11.26;57.83;99762.78;4933757;29;20516;-67
2022/04/22 06:51:40;;;;;;;35.20;12.57;;;;;;;11.27;57.73;99758.94;4929768;29;20150;-68
2022/04/22 06:54:07;;;;;;;32.17;13.15;;;;;;;11.32;57.86;99758.94;4932988;29;20087;-69
2022/04/22 06:56:36;;;;;;;31.42;11.32;;;;;;;11.33;57.76;99760.56;4914323;29;20052;-75
2022/04/22 06:59:04;;;;;;;31.30;11.02;;;;;;;11.33;57.70;99759.75;4929940;29;20142;-68
2022/04/22 07:01:31;;;;;;;24.17;11.00;;;;;;;11.39;57.43;99758.59;4938001;29;20064;-68
2022/04/22 07:03:57;;;;;;;;;;;;;;;11.42;57.45;99760.81;4935065;29;20047;-69
2022/04/22 07:06:24;;;;;;;25.80;10.15;;;;;;;11.42;57.17;99757.22;4924195;29;20323;-68
2022/04/22 07:08:51;;;;;;;22.47;9.93;;;;;;;11.34;56.92;99753.16;4916949;29;20059;-70
2022/04/22 07:11:26;;;;;;;40.83;9.95;;;;;;;11.33;57.16;99767.94;4933540;29;20078;-68
2022/04/22 07:13:53;;;;;;;35.70;9.50;;;;;;;11.31;57.18;99760.00;4934717;29;20106;-68
2022/04/22 07:16:21;;;;;;;23.00;9.50;;;;;;;11.35;56.80;99757.53;4917993;29;20420;-70
2022/04/22 07:18:47;;;;;;;22.30;9.57;;;;;;;11.37;56.80;99766.28;4912658;29;20078;-70
2022/04/22 07:21:14;;;;;;;26.63;10.60;;;;;;;11.34;56.86;99764.13;4932903;29;20063;-69
2022/04/22 07:23:42;;;;;;;23.58;8.57;;;;;;;11.31;57.00;99765.47;4933266;29;20039;-70
2022/04/22 07:26:10;;;;;;;23.23;8.60;;;;;;;11.20;57.11;99742.00;4928295;29;20601;-74
2022/04/22 07:28:38;;;;;;;22.23;8.77;;;;;;;11.35;56.74;99761.09;4931220;29;20059;-68
2022/04/22 07:31:09;;;;;;;19.05;8.40;;;;;;;11.40;56.85;99762.19;4935319;29;20591;-68
2022/04/22 07:33:36;;;;;;;17.40;8.32;;;;;;;11.38;56.85;99756.97;4932384;29;20577;-68
2022/04/22 07:36:03;;;;;;;17.20;8.23;;;;;;;11.33;56.58;99743.31;4915000;29;20113;-68
2022/04/22 07:38:29;;;;;;;25.52;8.02;;;;;;;11.41;56.61;99753.69;4929725;29;20440;-68
2022/04/22 07:40:56;;;;;;;28.33;9.45;;;;;;;11.39;56.38;99753.13;4932447;29;20056;-72
2022/04/22 07:48:55;;;;;;;23.08;7.82;;;;;;;11.40;56.52;99752.06;4931941;29;20062;-69
2022/04/22 07:51:23;;;;;;;21.85;8.20;;;;;;;11.40;56.57;99759.44;4911591;29;20122;-70
2022/04/22 07:53:49;;;;;;;;;;;;;;;11.41;56.68;99752.84;4927820;29;20059;-68
2022/04/22 07:56:15;;;;;;;20.80;7.90;;;;;;;11.45;56.33;99760.22;4911289;29;19926;-67
2022/04/22 07:58:41;;;;;;;28.05;8.18;;;;;;;11.42;56.43;99757.22;4931508;29;20051;-68
2022/04/22 08:01:08;;;;;;;17.90;7.47;;;;;;;11.35;56.64;99749.31;4931807;29;20462;-69
2022/04/22 08:03:38;;;;;;;21.80;8.05;;;;;;;11.37;56.59;99751.78;4929445;29;20056;-71
2022/04/22 08:06:11;;;;;;;22.67;7.07;;;;;;;11.39;56.68;99738.63;4932015;29;20048;-71
2022/04/22 08:08:37;;;;;;;22.20;7.75;;;;;;;11.34;56.80;99739.47;4932767;29;20056;-71
2022/04/22 08:11:03;;;;;;;18.60;7.32;;;;;;;11.43;56.63;99739.69;4932173;29;20062;-69
2022/04/22 08:13:29;;;;;;;22.27;8.23;;;;;;;11.48;56.44;99735.03;4927821;29;20808;-69
2022/04/22 08:15:56;;;;;;;20.10;8.70;;;;;;;11.53;56.37;99736.09;4900399;29;20066;-70
2022/04/22 08:18:22;;;;;;;22.08;9.38;;;;;;;11.52;56.21;99729.81;4933997;29;20059;-69
2022/04/22 08:20:48;;;;;;;18.05;7.82;;;;;;;11.57;56.29;99735.25;4933400;29;20524;-70
2022/04/22 08:23:20;;;;;;;18.85;8.15;;;;;;;11.57;56.32;99734.44;4931498;29;20135;-70
2022/04/22 08:25:47;;;;;;;21.08;9.07;;;;;;;11.59;56.10;99740.44;4916715;29;20094;-70
2022/04/22 08:28:13;;;;;;;21.85;9.00;;;;;;;11.59;56.10;99735.78;4931325;29;20052;-69
2022/04/22 08:30:40;;;;;;;20.55;8.80;;;;;;;11.58;56.00;99727.88;4933640;29;20091;-69
2022/04/22 08:33:06;;;;;;;26.08;8.20;;;;;;;11.64;55.93;99726.72;4932901;29;20062;-69
2022/04/22 08:35:35;;;;;;;20.85;8.43;;;;;;;11.75;55.61;99725.56;4932042;29;20059;-70
2022/04/22 08:38:03;;;;;;;20.35;8.48;;;;;;;11.83;55.45;99728.78;4929669;29;20059;-67
2022/04/22 08:40:34;;;;;;;20.88;7.80;;;;;;;11.78;55.52;99722.25;4935580;29;20065;-69
2022/04/22 08:43:03;;;;;;;21.92;7.80;;;;;;;11.76;55.52;99727.19;4946068;29;20134;-69
2022/04/22 08:45:32;;;;;;;21.40;7.97;;;;;;;11.74;55.60;99718.44;4930061;29;20110;-69
2022/04/22 08:50:45;;;;;;;18.17;7.60;;;;;;;11.84;55.43;99717.53;4932682;29;20508;-69
2022/04/22 08:53:20;;;;;;;27.15;8.43;;;;;;;11.83;55.35;99710.44;4916098;29;20059;-69
2022/04/22 08:55:50;;;;;;;25.83;7.43;;;;;;;11.84;55.27;99717.53;4931097;29;20067;-70
2022/04/22 08:58:20;;;;;;;21.92;8.15;;;;;;;11.84;55.46;99719.44;4928970;29;20420;-69
2022/04/22 09:00:49;;;;;;;19.17;7.72;;;;;;;11.89;55.36;99713.97;4899656;29;20151;-69
2022/04/22 09:03:16;;;;;;;14.85;7.22;;;;;;;11.87;55.10;99706.00;4928922;29;20506;-68
2022/04/22 09:05:44;;;;;;;21.27;6.95;;;;;;;12.07;54.70;99704.22;4920314;29;20047;-69
2022/04/22 09:08:11;;;;;;;19.45;7.35;;;;;;;12.12;54.59;99708.84;4932506;29;20142;-68
2022/04/22 09:10:40;;;;;;;22.25;7.18;;;;;;;12.24;54.25;99703.00;4933406;29;20191;-69
2022/04/22 09:13:09;;;;;;;22.35;7.10;;;;;;;12.28;54.31;99704.06;4914604;29;20450;-67
2022/04/22 09:15:39;;;;;;;22.17;8.13;;;;;;;12.24;54.45;99705.72;4933948;29;20146;-69
2022/04/22 09:18:10;;;;;;;18.45;8.35;;;;;;;12.29;54.44;99706.50;4916106;29;20051;-67
2022/04/22 09:20:37;;;;;;;22.50;8.00;;;;;;;12.32;54.59;99705.13;4912135;29;20525;-67
2022/04/22 09:23:32;;;;;;;25.10;9.32;;;;;;;12.39;54.42;99702.84;4924781;29;20460;-68
2022/04/22 09:25:58;;;;;;;29.05;8.50;;;;;;;12.42;54.23;99691.31;4926898;29;20138;-68
2022/04/22 09:28:25;;;;;;;27.40;8.68;;;;;;;12.41;54.25;99684.19;4930622;29;20425;-69
2022/04/22 09:30:58;;;;;;;20.90;7.78;;;;;;;12.42;54.09;99674.03;4932452;29;20051;-69
2022/04/22 09:33:25;;;;;;;21.15;8.07;;;;;;;12.65;53.69;99690.81;4913100;29;20073;-70
2022/04/22 09:44:51;;;;;;;22.38;7.30;;;;;;;12.76;53.45;99689.56;4912258;29;20063;-70
2022/04/22 09:47:18;;;;;;;19.05;7.47;;;;;;;12.77;53.24;99682.97;4929263;29;20380;-68
2022/04/22 09:49:45;;;;;;;21.45;6.75;;;;;;;12.75;53.42;99675.06;4929260;29;20057;-69
2022/04/22 09:52:12;;;;;;;25.25;7.03;;;;;;;12.72;53.46;99672.91;4928686;29;20063;-68
2022/04/22 09:54:38;;;;;;;22.50;7.70;;;;;;;12.80;53.28;99676.91;4931195;29;20054;-69
2022/04/22 09:57:05;;;;;;;20.23;7.30;;;;;;;12.84;53.05;99675.22;4932614;29;20063;-69
2022/04/22 09:59:33;;;;;;;15.38;6.72;;;;;;;12.86;52.82;99672.16;4932523;29;20083;-68
2022/04/22 10:02:04;;;;;;;23.05;8.20;;;;;;;12.83;52.94;99665.34;4914891;29;20511;-67
2022/04/22 10:04:32;;;;;;;13.65;7.03;;;;;;;12.91;52.75;99672.13;4929135;29;20055;-70
2022/04/22 10:07:02;;;;;;;20.40;7.28;;;;;;;12.86;52.97;99674.91;4945953;29;20071;-68
2022/04/22 10:09:32;;;;;;;19.17;6.72;;;;;;;12.88;52.73;99664.47;4929312;29;20094;-72
2022/04/22 10:12:01;;;;;;;27.85;7.43;;;;;;;12.94;52.64;99656.97;4907874;29;20055;-69
2022/04/22 10:14:35;;;;;;;21.60;7.18;;;;;;;13.02;52.40;99661.81;4928872;28;20052;-70
2022/04/22 10:17:04;;;;;;;18.48;6.70;;;;;;;13.16;52.12;99668.22;4937012;29;20114;-67
2022/04/22 10:19:32;;;;;;;22.40;6.95;;;;;;;13.31;51.84;99669.13;4941282;29;20338;-69
2022/04/22 10:21:59;;;;;;;21.42;6.57;;;;;;;13.32;51.79;99663.31;4936022;29;20068;-72
2022/04/22 10:24:26;;;;;;;19.90;7.38;;;;;;;13.26;51.89;99670.00;4941247;29;20476;-72
2022/04/22 10:26:53;;;;;;;18.13;6.77;;;;;;;13.24;51.96;99663.16;4935215;29;20063;-72
2022/04/22 10:29:23;;;;;;;20.75;7.00;;;;;;;13.25;51.89;99662.88;4918846;29;20066;-71
2022/04/22 10:31:51;;;;;;;19.70;7.00;;;;;;;13.32;52.05;99668.81;4935830;29;20060;-72
2022/04/22 10:34:19;;;;;;;22.73;6.35;;;;;;;13.28;51.82;99659.53;4933851;29;20311;-72
2022/04/22 10:36:54;;;;;;;22.15;6.30;;;;;;;13.25;51.78;99660.13;4935275;29;20059;-73
2022/04/22 10:39:33;;;;;;;15.27;5.78;;;;;;;13.24;51.75;99665.91;4918434;29;20060;-72
2022/04/22 10:41:59;;;;;;;23.45;7.53;;;;;;;13.25;51.61;99662.06;4935985;29;20531;-73
2022/04/22 10:47:13;;;;;;;13.20;5.95;;;;;;;13.10;51.70;99655.66;4922861;29;20532;-71
2022/04/22 10:49:43;;;;;;;20.30;6.28;;;;;;;13.04;51.83;99654.94;4933351;29;20142;-72
2022/04/22 10:52:13;;;;;;;15.02;5.70;;;;;;;13.01;51.92;99665.69;4915097;29;20483;-72
2022/04/22 10:55:11;;;;;;;14.43;5.57;;;;;;;12.96;51.56;99660.28;4932068;29;20056;-72
2022/04/22 10:57:42;;;;;;;13.05;5.65;;;;;;;12.89;51.90;99655.13;4932757;29;20134;-71
2022/04/22 11:00:27;;;;;;;11.90;5.53;;;;;;;12.97;51.54;99659.16;4933230;29;20066;-72
2022/04/22 11:03:16;;;;;;;19.33;5.43;;;;;;;12.98;51.39;99650.63;4928778;29;20103;-72
2022/04/22 11:05:48;;;;;;;15.40;5.68;;;;;;;13.05;51.26;99647.50;4909823;29;20125;-72
2022/04/22 11:08:30;;;;;;;22.52;5.65;;;;;;;13.04;51.26;99646.72;4931499;29;20060;-72
2022/04/22 11:11:05;;;;;;;13.98;5.97;;;;;;;13.11;51.36;99651.00;4930680;29;20055;-72
2022/04/22 11:13:33;;;;;;;18.98;6.53;;;;;;;13.17;51.01;99638.81;4942758;29;20067;-72
2022/04/22 11:16:05;;;;;;;17.33;5.90;;;;;;;13.09;51.12;99642.25;4954121;29;20062;-72
2022/04/22 11:18:31;;;;;;;11.18;5.60;;;;;;;13.07;50.97;99634.31;4945831;29;20488;-74
2022/04/22 11:21:02;;;;;;;15.20;5.23;;;;;;;12.97;51.15;99640.75;4913441;29;20052;-71
2022/04/22 11:23:37;;;;;;;11.85;4.55;;;;;;;12.92;51.26;99643.56;4915992;29;20063;-70
2022/04/22 11:26:04;;;;;;;13.50;5.00;;;;;;;12.83;51.52;99634.34;4932499;29;20520;-71
2022/04/22 11:28:35;;;;;;;14.13;5.40;;;;;;;12.80;51.55;99633.03;4932124;29;20052;-71
2022/04/22 11:31:03;;;;;;;11.07;5.50;;;;;;;12.73;51.56;99630.63;4932841;29;20052;-71
2022/04/22 11:33:35;;;;;;;16.15;5.65;;;;;;;12.69;51.61;99631.50;4935940;29;20063;-71
2022/04/22 11:36:05;;;;;;;13.25;5.40;;;;;;;12.69;51.93;99628.78;4933679;29;20171;-72
2022/04/22 11:38:32;;;;;;;11.23;4.43;;;;;;;12.68;51.68;99630.69;4931910;29;20047;-73
2022/04/22 11:40:59;;;;;;;13.23;4.97;;;;;;;12.72;51.68;99626.25;4917324;29;20401;-71
2022/04/22 11:43:28;;;;;;;19.90;5.10;;;;;;;12.75;51.59;99617.44;4934801;29;20488;-71
2022/04/22 11:45:54;;;;;;;12.07;5.00;;;;;;;12.76;51.48;99618.25;4917489;29;20098;-71
2022/04/22 11:48:23;;;;;;;12.98;4.45;;;;;;;12.82;51.43;99616.25;4933646;29;20074;-71
2022/04/22 11:50:50;;;;;;;12.15;4.97;;;;;;;12.72;51.24;99593.34;4933215;29;20623;-71
2022/04/22 11:53:20;;;;;;;14.15;5.10;;;;;;;12.94;50.99;99607.59;4934837;29;20051;-71
2022/04/22 11:55:48;;;;;;;15.10;5.32;;;;;;;12.91;51.06;99600.78;4932531;29;20060;-72
2022/04/22 11:58:20;;;;;;;13.63;5.25;;;;;;;12.90;51.22;99602.69;4931249;29;20536;-72
2022/04/22 12:06:19;;;;;;;14.95;5.65;;;;;;;12.85;50.80;99578.06;4926010;29;20055;-70
2022/04/22 12:08:54;;;;;;;22.42;5.80;;;;;;;12.96;50.56;99592.47;4920986;29;20067;-70
2022/04/22 12:11:21;;;;;;;14.07;5.35;;;;;;;12.91;50.79;99596.09;4935218;29;20099;-71
2022/04/22 12:13:48;;;;;;;21.05;5.80;;;;;;;12.94;50.90;99591.13;4927664;29;20146;-71
2022/04/22 12:16:18;;;;;;;23.00;5.78;;;;;;;12.91;50.96;99596.09;4930656;29;20059;-71
2022/04/22 12:18:47;;;;;;;16.00;5.57;;;;;;;13.02;50.71;99591.28;4933147;29;20406;-68
2022/04/22 12:21:14;;;;;;;10.75;4.90;;;;;;;12.90;50.90;99593.66;4933082;29;20055;-67
2022/04/22 12:23:42;;;;;;;16.50;5.20;;;;;;;12.91;50.83;99584.31;4914664;29;20091;-73
2022/04/22 12:26:20;;;;;;;15.20;5.32;;;;;;;12.90;50.74;99582.69;4932742;29;20094;-74
2022/04/22 12:28:57;;;;;;;11.73;4.78;;;;;;;12.90;50.85;99591.72;4931507;29;20469;-75
2022/04/22 12:31:24;;;;;;;;;;;;;;;12.88;50.83;99587.66;4929943;29;20071;-74
2022/04/22 12:33:56;;;;;;;13.25;5.22;;;;;;;12.78;50.96;99583.09;4930348;29;20280;-74
2022/04/22 12:36:23;;;;;;;16.17;5.38;;;;;;;12.74;51.10;99584.81;4932376;29;20059;-74
2022/04/22 12:38:49;;;;;;;18.03;6.20;;;;;;;12.69;51.17;99584.88;4930903;29;20456;-74